Carolyn — 9V2368 — position and weather

sailwx.info

Track history (hours):
 
Tides and Currents Weather Stations Pressure Air Temp Water Temp Dewpoint Dewpoint Depression Visibility Wind Speed Wind Dir Waves Ship Positions

Carolyn

Last reported at 2017-Oct-19 03:41 UTC. Time now 2017-Nov-23 22:28 UTC.
Position N 48°01' W 125°56'.
Warning: this ship's position is 35 days out of date.

Length 189 m; draft 12.8 m.

Type: Cargo ship. MMSI: 564576000.

Date/timePositionNaut miles runAvg speedWind from/ knotsBaromVisibWave heightAir tempDewpointWater temp
2017-Oct-19 03:41N 48°01' W 125°56'3 8.2
2017-Oct-19 03:16N 48°03' W 125°51'8 8.4
2017-Oct-19 02:19N 48°07' W 125°41'2 8.2
2017-Oct-19 02:00N 48°08' W 125°38'4 7.9
2017-Oct-19 01:29N 48°10' W 125°33'4 7.8
2017-Oct-19 00:55N 48°13' W 125°28'3 7.5
2017-Oct-19 00:27N 48°15' W 125°24'4 7.9
2017-Oct-19 00:00N 48°17' W 125°20'4 7.5
2017-Oct-18 23:30N 48°20' W 125°15'4 7.2
2017-Oct-18 23:00N 48°22' W 125°11'4 6.7
2017-Oct-18 22:28N 48°25' W 125°08'3 7.0
2017-Oct-18 22:00N 48°27' W 125°04'3 7.1
2017-Oct-18 21:30N 48°30' W 125°01'3 5.6
2017-Oct-18 20:57N 48°31' W 124°57'22 8.8
2017-Oct-18 18:28N 48°26' W 124°25'612.3
2017-Oct-18 18:00N 48°23' W 124°17'612.3
2017-Oct-18 17:30N 48°21' W 124°08'712.7
2017-Oct-18 16:59N 48°19' W 123°59'713.0
2017-Oct-18 16:27N 48°17' W 123°49'713.4
2017-Oct-18 15:56N 48°16' W 123°39'512.9
2017-Oct-18 15:30N 48°16' W 123°30'612.3
2017-Oct-18 15:01N 48°21' W 123°26'1010.2
2017-Oct-18 14:01N 48°26' W 123°12'612.9
2017-Oct-18 13:31N 48°33' W 123°13'612.6
2017-Oct-18 13:00N 48°39' W 123°15'510.0
2017-Oct-18 12:30N 48°43' W 123°11'612.6
2017-Oct-18 12:00N 48°46' W 123°02'5 9.7
2017-Oct-18 11:30N 48°51' W 123°04'612.0
2017-Oct-18 11:00N 48°55' W 123°11'612.2
2017-Oct-18 10:30N 48°60' W 123°17'611.9
2017-Oct-18 10:00N 49°04' W 123°24'612.0
2017-Oct-18 09:30N 49°10' W 123°22'612.4
2017-Oct-18 09:00N 49°16' W 123°20'611.1
2017-Oct-18 08:31N 49°19' W 123°13'4 8.4
2017-Oct-18 08:00N 49°18' W 123°07'4 7.1
2017-Oct-18 07:30N 49°18' W 123°02'2 4.3
2017-Oct-18 07:00N 49°18' W 122°58'0 0.4
2017-Oct-18 06:30N 49°18' W 122°58'0 0.2
2017-Oct-18 05:58N 49°18' W 122°58'0 0.1
2017-Oct-18 05:28N 49°18' W 122°58'0 0.0
2017-Oct-18 04:58N 49°18' W 122°58'0 0.0
2017-Oct-18 04:28N 49°18' W 122°58'0 0.0
2017-Oct-18 03:58N 49°18' W 122°58'0 0.0
2017-Oct-18 03:28N 49°18' W 122°58'0 0.3
2017-Oct-18 02:58N 49°18' W 122°58'0 0.8
2017-Oct-18 02:30N 49°18' W 122°58'2 4.5
2017-Oct-18 02:00N 49°18' W 122°54'2 3.1
2017-Oct-18 01:30N 49°17' W 122°52'0 0.1
2017-Oct-18 00:55N 49°17' W 122°52'0 0.0
2017-Oct-18 00:25N 49°17' W 122°52'0 0.0
2017-Oct-17 23:58N 49°17' W 122°52'0 0.0
2017-Oct-17 23:22N 49°17' W 122°52'0 0.0
2017-Oct-17 22:55N 49°17' W 122°52'0 0.0
2017-Oct-17 22:25N 49°17' W 122°52'0 0.0
2017-Oct-17 21:58N 49°17' W 122°52'0 0.0
2017-Oct-17 21:25N 49°17' W 122°52'0 0.0
2017-Oct-17 20:58N 49°17' W 122°52'0 0.0
2017-Oct-17 20:20N 49°17' W 122°52'0 0.0
2017-Oct-17 19:58N 49°17' W 122°52'0 0.0
2017-Oct-17 19:19N 49°17' W 122°52'0 0.0
2017-Oct-17 18:55N 49°17' W 122°52'0 0.0
2017-Oct-17 17:55N 49°17' W 122°52'0 0.0
2017-Oct-17 17:28N 49°17' W 122°52'0 0.0
2017-Oct-17 16:58N 49°17' W 122°52'0 0.0
2017-Oct-17 16:28N 49°17' W 122°52'0 0.0
2017-Oct-17 15:55N 49°17' W 122°52'0 0.0
2017-Oct-17 15:28N 49°17' W 122°52'0 0.0
2017-Oct-17 14:58N 49°17' W 122°52'0 0.0
2017-Oct-17 14:28N 49°17' W 122°52'0 0.0
2017-Oct-17 13:28N 49°17' W 122°52'0 0.0
2017-Oct-17 12:52N 49°17' W 122°52'0 0.0
2017-Oct-17 12:19N 49°17' W 122°52'0 0.0
2017-Oct-17 11:58N 49°17' W 122°52'0 0.0
2017-Oct-17 11:25N 49°17' W 122°52'0 0.0
2017-Oct-17 10:55N 49°17' W 122°52'0 0.0
2017-Oct-17 10:25N 49°17' W 122°52'0 0.0
2017-Oct-17 09:55N 49°17' W 122°52'0 0.0
2017-Oct-17 09:25N 49°17' W 122°52'0 0.0
2017-Oct-17 08:55N 49°17' W 122°52'0 0.0
2017-Oct-17 08:25N 49°17' W 122°52'0 0.0
2017-Oct-17 07:58N 49°17' W 122°52'0 0.0
2017-Oct-17 07:25N 49°17' W 122°52'0 0.0
2017-Oct-17 06:58N 49°17' W 122°52'0 0.0
2017-Oct-17 06:25N 49°17' W 122°52'0 0.0
2017-Oct-17 05:55N 49°17' W 122°52'0 0.0
2017-Oct-17 05:28N 49°17' W 122°52'0 0.0
2017-Oct-17 04:58N 49°17' W 122°52'0 0.0
2017-Oct-17 04:28N 49°17' W 122°52'0 0.0
2017-Oct-17 03:58N 49°17' W 122°52'0 0.0
2017-Oct-17 03:13N 49°17' W 122°52'0 0.0
2017-Oct-17 02:58N 49°17' W 122°52'0 0.0
2017-Oct-17 02:28N 49°17' W 122°52'0 0.0
2017-Oct-17 01:58N 49°17' W 122°52'0 0.0
2017-Oct-17 01:28N 49°17' W 122°52'0 0.0
2017-Oct-17 00:58N 49°17' W 122°52'0 0.0
2017-Oct-17 00:28N 49°17' W 122°52'0 0.0
2017-Oct-16 23:58N 49°17' W 122°52'0 0.0
2017-Oct-16 23:28N 49°17' W 122°52'0 0.0
2017-Oct-16 22:58N 49°17' W 122°52'0 0.0
2017-Oct-16 22:28N 49°17' W 122°52'0 0.0
2017-Oct-16 21:58N 49°17' W 122°52'0 0.0
2017-Oct-16 21:28N 49°17' W 122°52'0 0.0
2017-Oct-16 20:58N 49°17' W 122°52'0 0.0
2017-Oct-16 20:28N 49°17' W 122°52'0 0.0
2017-Oct-16 19:55N 49°17' W 122°52'0 0.0
2017-Oct-16 19:25N 49°17' W 122°52'0 0.0
2017-Oct-16 18:58N 49°17' W 122°52'0 0.1
2017-Oct-16 18:30N 49°17' W 122°52'1 1.3
2017-Oct-16 18:00N 49°18' W 122°53'2 4.7
2017-Oct-16 17:30N 49°18' W 122°56'3 6.6
2017-Oct-16 17:00N 49°18' W 123°02'2 4.4
2017-Oct-16 16:30N 49°18' W 123°05'0 0.2
2017-Oct-16 15:59N 49°18' W 123°05'0 0.0
2017-Oct-16 15:29N 49°18' W 123°05'0 0.0
2017-Oct-16 14:59N 49°18' W 123°05'0 0.0
2017-Oct-16 13:59N 49°18' W 123°05'0 0.0
2017-Oct-16 13:29N 49°18' W 123°05'0 0.0
2017-Oct-16 12:59N 49°18' W 123°05'0 0.0
2017-Oct-16 12:29N 49°18' W 123°05'0 0.0
2017-Oct-16 11:59N 49°18' W 123°05'0 0.0
2017-Oct-16 11:29N 49°18' W 123°05'0 0.0
2017-Oct-16 10:59N 49°18' W 123°05'0 0.2
2017-Oct-16 10:29N 49°18' W 123°05'0 0.1
2017-Oct-16 09:59N 49°18' W 123°05'0 0.2
2017-Oct-16 09:29N 49°18' W 123°05'0 0.1
2017-Oct-16 08:59N 49°18' W 123°05'0 0.0
2017-Oct-16 08:29N 49°18' W 123°05'0 0.0
2017-Oct-16 07:59N 49°18' W 123°05'0 0.0
2017-Oct-16 07:29N 49°18' W 123°05'0 0.0
2017-Oct-16 06:59N 49°18' W 123°05'0 0.0
2017-Oct-16 06:29N 49°18' W 123°05'0 0.0
2017-Oct-16 05:59N 49°18' W 123°05'0 0.0
2017-Oct-16 05:29N 49°18' W 123°05'0 0.0
2017-Oct-16 04:59N 49°18' W 123°05'0 0.0
2017-Oct-16 04:30N 49°18' W 123°05'2 4.5
2017-Oct-16 04:00N 49°19' W 123°08'4 9.0
2017-Oct-16 03:30N 49°18' W 123°15'510.7
2017-Oct-16 03:00N 49°14' W 123°19'611.7
2017-Oct-16 02:30N 49°08' W 123°20'510.7
2017-Oct-16 02:00N 49°03' W 123°19'611.3
2017-Oct-16 01:30N 48°59' W 123°13'611.3
2017-Oct-16 01:00N 48°55' W 123°06'611.1
2017-Oct-16 00:30N 48°50' W 123°01'4 8.9
2017-Oct-16 00:00N 48°46' W 123°02'611.7
2017-Oct-15 23:30N 48°43' W 123°10'5 9.9
2017-Oct-15 23:00N 48°39' W 123°14'612.9
2017-Oct-15 22:30N 48°33' W 123°13'612.4
2017-Oct-15 22:00N 48°27' W 123°10'611.9
2017-Oct-15 21:30N 48°23' W 123°16'611.4
2017-Oct-15 21:00N 48°20' W 123°24'611.1
2017-Oct-15 20:30N 48°15' W 123°27'3 6.6
2017-Oct-15 20:00N 48°13' W 123°32'713.1
2017-Oct-15 19:30N 48°13' W 123°41'714.5
2017-Oct-15 19:00N 48°13' W 123°52'714.6
2017-Oct-15 18:30N 48°16' W 124°03'714.6
2017-Oct-15 18:00N 48°19' W 124°13'714.3
2017-Oct-15 17:30N 48°22' W 124°22'713.8
2017-Oct-15 17:00N 48°25' W 124°32'713.4
2017-Oct-15 16:30N 48°28' W 124°41'612.5
2017-Oct-15 16:00N 48°29' W 124°50'613.0
2017-Oct-15 15:30N 48°29' W 124°60'612.4
2017-Oct-15 15:00N 48°29' W 125°09'1312.8
2017-Oct-15 14:00N 48°29' W 125°28'613.0
2017-Oct-15 13:30N 48°29' W 125°38'612.7
2017-Oct-15 13:00N 48°29' W 125°48'612.4
2017-Oct-15 12:30N 48°29' W 125°57'713.0
2017-Oct-15 12:00N 48°29' W 126°07'613.1
2017-Oct-15 11:30N 48°29' W 126°17'  
Track history (hours):
 
Tides and Currents Weather Stations Pressure Air Temp Water Temp Dewpoint Dewpoint Depression Visibility Wind Speed Wind Dir Waves Ship Positions

Carolyn

Last reported at 2017-Oct-19 03:41 UTC. Time now 2017-Nov-23 22:28 UTC.
Position N 48°01' W 125°56'.
Warning: this ship's position is 35 days out of date.

Length 189 m; draft 12.8 m.

Type: Cargo ship. MMSI: 564576000.

Date/timePositionNaut miles runAvg speedWind from/ knotsBaromVisibWave heightAir tempDewpointWater temp
2017-Oct-19 03:41N 48°01' W 125°56'3 8.2
2017-Oct-19 03:16N 48°03' W 125°51'8 8.4
2017-Oct-19 02:19N 48°07' W 125°41'2 8.2
2017-Oct-19 02:00N 48°08' W 125°38'4 7.9
2017-Oct-19 01:29N 48°10' W 125°33'4 7.8
2017-Oct-19 00:55N 48°13' W 125°28'3 7.5
2017-Oct-19 00:27N 48°15' W 125°24'4 7.9
2017-Oct-19 00:00N 48°17' W 125°20'4 7.5
2017-Oct-18 23:30N 48°20' W 125°15'4 7.2
2017-Oct-18 23:00N 48°22' W 125°11'4 6.7
2017-Oct-18 22:28N 48°25' W 125°08'3 7.0
2017-Oct-18 22:00N 48°27' W 125°04'3 7.1
2017-Oct-18 21:30N 48°30' W 125°01'3 5.6
2017-Oct-18 20:57N 48°31' W 124°57'22 8.8
2017-Oct-18 18:28N 48°26' W 124°25'612.3
2017-Oct-18 18:00N 48°23' W 124°17'612.3
2017-Oct-18 17:30N 48°21' W 124°08'712.7
2017-Oct-18 16:59N 48°19' W 123°59'713.0
2017-Oct-18 16:27N 48°17' W 123°49'713.4
2017-Oct-18 15:56N 48°16' W 123°39'512.9
2017-Oct-18 15:30N 48°16' W 123°30'612.3
2017-Oct-18 15:01N 48°21' W 123°26'1010.2
2017-Oct-18 14:01N 48°26' W 123°12'612.9
2017-Oct-18 13:31N 48°33' W 123°13'612.6
2017-Oct-18 13:00N 48°39' W 123°15'510.0
2017-Oct-18 12:30N 48°43' W 123°11'612.6
2017-Oct-18 12:00N 48°46' W 123°02'5 9.7
2017-Oct-18 11:30N 48°51' W 123°04'612.0
2017-Oct-18 11:00N 48°55' W 123°11'612.2
2017-Oct-18 10:30N 48°60' W 123°17'611.9
2017-Oct-18 10:00N 49°04' W 123°24'612.0
2017-Oct-18 09:30N 49°10' W 123°22'612.4
2017-Oct-18 09:00N 49°16' W 123°20'611.1
2017-Oct-18 08:31N 49°19' W 123°13'4 8.4
2017-Oct-18 08:00N 49°18' W 123°07'4 7.1
2017-Oct-18 07:30N 49°18' W 123°02'2 4.3
2017-Oct-18 07:00N 49°18' W 122°58'0 0.4
2017-Oct-18 06:30N 49°18' W 122°58'0 0.2
2017-Oct-18 05:58N 49°18' W 122°58'0 0.1
2017-Oct-18 05:28N 49°18' W 122°58'0 0.0
2017-Oct-18 04:58N 49°18' W 122°58'0 0.0
2017-Oct-18 04:28N 49°18' W 122°58'0 0.0
2017-Oct-18 03:58N 49°18' W 122°58'0 0.0
2017-Oct-18 03:28N 49°18' W 122°58'0 0.3
2017-Oct-18 02:58N 49°18' W 122°58'0 0.8
2017-Oct-18 02:30N 49°18' W 122°58'2 4.5
2017-Oct-18 02:00N 49°18' W 122°54'2 3.1
2017-Oct-18 01:30N 49°17' W 122°52'0 0.1
2017-Oct-18 00:55N 49°17' W 122°52'0 0.0
2017-Oct-18 00:25N 49°17' W 122°52'0 0.0
2017-Oct-17 23:58N 49°17' W 122°52'0 0.0
2017-Oct-17 23:22N 49°17' W 122°52'0 0.0
2017-Oct-17 22:55N 49°17' W 122°52'0 0.0
2017-Oct-17 22:25N 49°17' W 122°52'0 0.0
2017-Oct-17 21:58N 49°17' W 122°52'0 0.0
2017-Oct-17 21:25N 49°17' W 122°52'0 0.0
2017-Oct-17 20:58N 49°17' W 122°52'0 0.0
2017-Oct-17 20:20N 49°17' W 122°52'0 0.0
2017-Oct-17 19:58N 49°17' W 122°52'0 0.0
2017-Oct-17 19:19N 49°17' W 122°52'0 0.0
2017-Oct-17 18:55N 49°17' W 122°52'0 0.0
2017-Oct-17 17:55N 49°17' W 122°52'0 0.0
2017-Oct-17 17:28N 49°17' W 122°52'0 0.0
2017-Oct-17 16:58N 49°17' W 122°52'0 0.0
2017-Oct-17 16:28N 49°17' W 122°52'0 0.0
2017-Oct-17 15:55N 49°17' W 122°52'0 0.0
2017-Oct-17 15:28N 49°17' W 122°52'0 0.0
2017-Oct-17 14:58N 49°17' W 122°52'0 0.0
2017-Oct-17 14:28N 49°17' W 122°52'0 0.0
2017-Oct-17 13:28N 49°17' W 122°52'0 0.0
2017-Oct-17 12:52N 49°17' W 122°52'0 0.0
2017-Oct-17 12:19N 49°17' W 122°52'0 0.0
2017-Oct-17 11:58N 49°17' W 122°52'0 0.0
2017-Oct-17 11:25N 49°17' W 122°52'0 0.0
2017-Oct-17 10:55N 49°17' W 122°52'0 0.0
2017-Oct-17 10:25N 49°17' W 122°52'0 0.0
2017-Oct-17 09:55N 49°17' W 122°52'0 0.0
2017-Oct-17 09:25N 49°17' W 122°52'0 0.0
2017-Oct-17 08:55N 49°17' W 122°52'0 0.0
2017-Oct-17 08:25N 49°17' W 122°52'0 0.0
2017-Oct-17 07:58N 49°17' W 122°52'0 0.0
2017-Oct-17 07:25N 49°17' W 122°52'0 0.0
2017-Oct-17 06:58N 49°17' W 122°52'0 0.0
2017-Oct-17 06:25N 49°17' W 122°52'0 0.0
2017-Oct-17 05:55N 49°17' W 122°52'0 0.0
2017-Oct-17 05:28N 49°17' W 122°52'0 0.0
2017-Oct-17 04:58N 49°17' W 122°52'0 0.0
2017-Oct-17 04:28N 49°17' W 122°52'0 0.0
2017-Oct-17 03:58N 49°17' W 122°52'0 0.0
2017-Oct-17 03:13N 49°17' W 122°52'0 0.0
2017-Oct-17 02:58N 49°17' W 122°52'0 0.0
2017-Oct-17 02:28N 49°17' W 122°52'0 0.0
2017-Oct-17 01:58N 49°17' W 122°52'0 0.0
2017-Oct-17 01:28N 49°17' W 122°52'0 0.0
2017-Oct-17 00:58N 49°17' W 122°52'0 0.0
2017-Oct-17 00:28N 49°17' W 122°52'0 0.0
2017-Oct-16 23:58N 49°17' W 122°52'0 0.0
2017-Oct-16 23:28N 49°17' W 122°52'0 0.0
2017-Oct-16 22:58N 49°17' W 122°52'0 0.0
2017-Oct-16 22:28N 49°17' W 122°52'0 0.0
2017-Oct-16 21:58N 49°17' W 122°52'0 0.0
2017-Oct-16 21:28N 49°17' W 122°52'0 0.0
2017-Oct-16 20:58N 49°17' W 122°52'0 0.0
2017-Oct-16 20:28N 49°17' W 122°52'0 0.0
2017-Oct-16 19:55N 49°17' W 122°52'0 0.0
2017-Oct-16 19:25N 49°17' W 122°52'0 0.0
2017-Oct-16 18:58N 49°17' W 122°52'0 0.1
2017-Oct-16 18:30N 49°17' W 122°52'1 1.3
2017-Oct-16 18:00N 49°18' W 122°53'2 4.7
2017-Oct-16 17:30N 49°18' W 122°56'3 6.6
2017-Oct-16 17:00N 49°18' W 123°02'2 4.4
2017-Oct-16 16:30N 49°18' W 123°05'0 0.2
2017-Oct-16 15:59N 49°18' W 123°05'0 0.0
2017-Oct-16 15:29N 49°18' W 123°05'0 0.0
2017-Oct-16 14:59N 49°18' W 123°05'0 0.0
2017-Oct-16 13:59N 49°18' W 123°05'0 0.0
2017-Oct-16 13:29N 49°18' W 123°05'0 0.0
2017-Oct-16 12:59N 49°18' W 123°05'0 0.0
2017-Oct-16 12:29N 49°18' W 123°05'0 0.0
2017-Oct-16 11:59N 49°18' W 123°05'0 0.0
2017-Oct-16 11:29N 49°18' W 123°05'0 0.0
2017-Oct-16 10:59N 49°18' W 123°05'0 0.2
2017-Oct-16 10:29N 49°18' W 123°05'0 0.1
2017-Oct-16 09:59N 49°18' W 123°05'0 0.2
2017-Oct-16 09:29N 49°18' W 123°05'0 0.1
2017-Oct-16 08:59N 49°18' W 123°05'0 0.0
2017-Oct-16 08:29N 49°18' W 123°05'0 0.0
2017-Oct-16 07:59N 49°18' W 123°05'0 0.0
2017-Oct-16 07:29N 49°18' W 123°05'0 0.0
2017-Oct-16 06:59N 49°18' W 123°05'0 0.0
2017-Oct-16 06:29N 49°18' W 123°05'0 0.0
2017-Oct-16 05:59N 49°18' W 123°05'0 0.0
2017-Oct-16 05:29N 49°18' W 123°05'0 0.0
2017-Oct-16 04:59N 49°18' W 123°05'0 0.0
2017-Oct-16 04:30N 49°18' W 123°05'2 4.5
2017-Oct-16 04:00N 49°19' W 123°08'4 9.0
2017-Oct-16 03:30N 49°18' W 123°15'510.7
2017-Oct-16 03:00N 49°14' W 123°19'611.7
2017-Oct-16 02:30N 49°08' W 123°20'510.7
2017-Oct-16 02:00N 49°03' W 123°19'611.3
2017-Oct-16 01:30N 48°59' W 123°13'611.3
2017-Oct-16 01:00N 48°55' W 123°06'611.1
2017-Oct-16 00:30N 48°50' W 123°01'4 8.9
2017-Oct-16 00:00N 48°46' W 123°02'611.7
2017-Oct-15 23:30N 48°43' W 123°10'5 9.9
2017-Oct-15 23:00N 48°39' W 123°14'612.9
2017-Oct-15 22:30N 48°33' W 123°13'612.4
2017-Oct-15 22:00N 48°27' W 123°10'611.9
2017-Oct-15 21:30N 48°23' W 123°16'611.4
2017-Oct-15 21:00N 48°20' W 123°24'611.1
2017-Oct-15 20:30N 48°15' W 123°27'3 6.6
2017-Oct-15 20:00N 48°13' W 123°32'713.1
2017-Oct-15 19:30N 48°13' W 123°41'714.5
2017-Oct-15 19:00N 48°13' W 123°52'714.6
2017-Oct-15 18:30N 48°16' W 124°03'714.6
2017-Oct-15 18:00N 48°19' W 124°13'714.3
2017-Oct-15 17:30N 48°22' W 124°22'713.8
2017-Oct-15 17:00N 48°25' W 124°32'713.4
2017-Oct-15 16:30N 48°28' W 124°41'612.5
2017-Oct-15 16:00N 48°29' W 124°50'613.0
2017-Oct-15 15:30N 48°29' W 124°60'612.4
2017-Oct-15 15:00N 48°29' W 125°09'1312.8
2017-Oct-15 14:00N 48°29' W 125°28'613.0
2017-Oct-15 13:30N 48°29' W 125°38'612.7
2017-Oct-15 13:00N 48°29' W 125°48'612.4
2017-Oct-15 12:30N 48°29' W 125°57'713.0
2017-Oct-15 12:00N 48°29' W 126°07'613.1
2017-Oct-15 11:30N 48°29' W 126°17'  

Dump ship's entire track history